sensor_id;sensor_type;location;lat;lon;timestamp;P1;durP1;ratioP1;P2;durP2;ratioP2
3543;SDS011;1786;52.870;9.578;2023-05-10T00:00:54;2.83;;;2.63;;
3543;SDS011;1786;52.870;9.578;2023-05-10T00:03:20;3.33;;;2.40;;
3543;SDS011;1786;52.870;9.578;2023-05-10T00:05:47;3.13;;;2.90;;
3543;SDS011;1786;52.870;9.578;2023-05-10T00:08:14;5.23;;;2.30;;
3543;SDS011;1786;52.870;9.578;2023-05-10T00:10:40;5.73;;;3.10;;
3543;SDS011;1786;52.870;9.578;2023-05-10T00:13:07;2.63;;;2.43;;
3543;SDS011;1786;52.870;9.578;2023-05-10T00:15:34;3.43;;;2.80;;
3543;SDS011;1786;52.870;9.578;2023-05-10T00:18:00;3.40;;;2.57;;
3543;SDS011;1786;52.870;9.578;2023-05-10T00:20:27;2.33;;;2.13;;
3543;SDS011;1786;52.870;9.578;2023-05-10T00:22:54;2.67;;;2.47;;
3543;SDS011;1786;52.870;9.578;2023-05-10T00:25:21;2.53;;;2.33;;
3543;SDS011;1786;52.870;9.578;2023-05-10T00:27:48;2.60;;;2.17;;
3543;SDS011;1786;52.870;9.578;2023-05-10T00:30:16;5.90;;;2.80;;
3543;SDS011;1786;52.870;9.578;2023-05-10T00:32:43;5.20;;;2.43;;
3543;SDS011;1786;52.870;9.578;2023-05-10T00:35:09;4.10;;;2.90;;
3543;SDS011;1786;52.870;9.578;2023-05-10T00:37:36;4.13;;;2.23;;
3543;SDS011;1786;52.870;9.578;2023-05-10T00:40:03;3.90;;;3.00;;
3543;SDS011;1786;52.870;9.578;2023-05-10T00:42:31;2.37;;;2.17;;
3543;SDS011;1786;52.870;9.578;2023-05-10T00:44:58;5.57;;;2.67;;
3543;SDS011;1786;52.870;9.578;2023-05-10T00:47:24;5.83;;;2.70;;
3543;SDS011;1786;52.870;9.578;2023-05-10T00:49:51;3.13;;;2.60;;
3543;SDS011;1786;52.870;9.578;2023-05-10T00:52:18;3.90;;;2.60;;
3543;SDS011;1786;52.870;9.578;2023-05-10T00:54:44;3.60;;;2.40;;
3543;SDS011;1786;52.870;9.578;2023-05-10T00:57:11;2.83;;;2.70;;
3543;SDS011;1786;52.870;9.578;2023-05-10T00:59:38;12.33;;;2.50;;
3543;SDS011;1786;52.870;9.578;2023-05-10T01:02:04;3.47;;;3.17;;
3543;SDS011;1786;52.870;9.578;2023-05-10T01:04:32;4.03;;;2.50;;
3543;SDS011;1786;52.870;9.578;2023-05-10T01:06:59;3.10;;;2.90;;
3543;SDS011;1786;52.870;9.578;2023-05-10T01:09:26;3.00;;;2.80;;
3543;SDS011;1786;52.870;9.578;2023-05-10T01:11:53;3.20;;;2.90;;
3543;SDS011;1786;52.870;9.578;2023-05-10T01:14:21;2.60;;;2.40;;
3543;SDS011;1786;52.870;9.578;2023-05-10T01:16:49;2.43;;;2.33;;
3543;SDS011;1786;52.870;9.578;2023-05-10T01:19:21;3.67;;;2.50;;
3543;SDS011;1786;52.870;9.578;2023-05-10T01:24:42;5.27;;;3.30;;
3543;SDS011;1786;52.870;9.578;2023-05-10T01:27:25;3.23;;;3.03;;
3543;SDS011;1786;52.870;9.578;2023-05-10T01:30:08;3.40;;;3.10;;
3543;SDS011;1786;52.870;9.578;2023-05-10T01:35:30;6.43;;;2.80;;
3543;SDS011;1786;52.870;9.578;2023-05-10T01:38:07;3.93;;;3.63;;
3543;SDS011;1786;52.870;9.578;2023-05-10T01:40:55;4.27;;;3.10;;
3543;SDS011;1786;52.870;9.578;2023-05-10T01:46:36;10.13;;;2.90;;
3543;SDS011;1786;52.870;9.578;2023-05-10T01:49:08;4.90;;;3.50;;
3543;SDS011;1786;52.870;9.578;2023-05-10T01:52:12;7.53;;;3.17;;
3543;SDS011;1786;52.870;9.578;2023-05-10T01:54:33;3.53;;;3.20;;
3543;SDS011;1786;52.870;9.578;2023-05-10T01:57:03;3.70;;;3.50;;
3543;SDS011;1786;52.870;9.578;2023-05-10T01:59:33;3.20;;;3.00;;
3543;SDS011;1786;52.870;9.578;2023-05-10T02:02:07;5.00;;;3.47;;
3543;SDS011;1786;52.870;9.578;2023-05-10T02:04:41;3.13;;;2.90;;
3543;SDS011;1786;52.870;9.578;2023-05-10T02:07:09;4.73;;;3.27;;
3543;SDS011;1786;52.870;9.578;2023-05-10T02:09:36;6.03;;;3.63;;
3543;SDS011;1786;52.870;9.578;2023-05-10T02:12:05;6.40;;;3.70;;
3543;SDS011;1786;52.870;9.578;2023-05-10T02:14:34;4.67;;;3.20;;
3543;SDS011;1786;52.870;9.578;2023-05-10T02:17:03;6.23;;;3.47;;
3543;SDS011;1786;52.870;9.578;2023-05-10T02:19:32;3.50;;;3.20;;
3543;SDS011;1786;52.870;9.578;2023-05-10T02:22:01;3.43;;;3.33;;
3543;SDS011;1786;52.870;9.578;2023-05-10T02:24:30;9.13;;;3.90;;
3543;SDS011;1786;52.870;9.578;2023-05-10T02:27:00;6.47;;;3.23;;
3543;SDS011;1786;52.870;9.578;2023-05-10T02:29:29;3.43;;;3.23;;
3543;SDS011;1786;52.870;9.578;2023-05-10T02:31:58;6.77;;;3.30;;
3543;SDS011;1786;52.870;9.578;2023-05-10T02:34:26;3.97;;;3.67;;
3543;SDS011;1786;52.870;9.578;2023-05-10T02:36:54;5.47;;;3.53;;
3543;SDS011;1786;52.870;9.578;2023-05-10T02:39:22;4.00;;;3.60;;
3543;SDS011;1786;52.870;9.578;2023-05-10T02:41:50;7.67;;;3.47;;
3543;SDS011;1786;52.870;9.578;2023-05-10T02:44:19;4.43;;;3.10;;
3543;SDS011;1786;52.870;9.578;2023-05-10T02:46:47;7.10;;;3.37;;
3543;SDS011;1786;52.870;9.578;2023-05-10T02:49:14;4.00;;;3.43;;
3543;SDS011;1786;52.870;9.578;2023-05-10T02:51:43;5.80;;;3.40;;
3543;SDS011;1786;52.870;9.578;2023-05-10T02:54:18;5.30;;;3.40;;
3543;SDS011;1786;52.870;9.578;2023-05-10T02:56:47;3.60;;;3.00;;
3543;SDS011;1786;52.870;9.578;2023-05-10T02:59:20;3.00;;;2.80;;
3543;SDS011;1786;52.870;9.578;2023-05-10T03:01:46;3.80;;;3.50;;
3543;SDS011;1786;52.870;9.578;2023-05-10T03:04:13;4.20;;;3.90;;
3543;SDS011;1786;52.870;9.578;2023-05-10T03:06:40;3.43;;;3.00;;
3543;SDS011;1786;52.870;9.578;2023-05-10T03:09:07;10.20;;;4.07;;
3543;SDS011;1786;52.870;9.578;2023-05-10T03:14:21;3.80;;;3.50;;
3543;SDS011;1786;52.870;9.578;2023-05-10T03:16:58;3.60;;;3.40;;
3543;SDS011;1786;52.870;9.578;2023-05-10T03:19:32;3.47;;;3.27;;
3543;SDS011;1786;52.870;9.578;2023-05-10T03:22:10;4.83;;;3.47;;
3543;SDS011;1786;52.870;9.578;2023-05-10T03:24:39;2.80;;;2.60;;
3543;SDS011;1786;52.870;9.578;2023-05-10T03:27:08;3.20;;;3.00;;
3543;SDS011;1786;52.870;9.578;2023-05-10T03:29:35;4.07;;;3.70;;
3543;SDS011;1786;52.870;9.578;2023-05-10T03:32:03;4.43;;;3.20;;
3543;SDS011;1786;52.870;9.578;2023-05-10T03:34:31;4.83;;;3.53;;
3543;SDS011;1786;52.870;9.578;2023-05-10T03:36:58;10.17;;;3.27;;
3543;SDS011;1786;52.870;9.578;2023-05-10T03:39:27;3.83;;;3.03;;
3543;SDS011;1786;52.870;9.578;2023-05-10T03:41:56;3.97;;;3.37;;
3543;SDS011;1786;52.870;9.578;2023-05-10T03:44:23;6.90;;;3.47;;
3543;SDS011;1786;52.870;9.578;2023-05-10T03:46:50;3.80;;;3.60;;
3543;SDS011;1786;52.870;9.578;2023-05-10T03:49:17;3.60;;;3.40;;
3543;SDS011;1786;52.870;9.578;2023-05-10T03:51:44;3.33;;;3.10;;
3543;SDS011;1786;52.870;9.578;2023-05-10T03:54:10;3.93;;;3.50;;
3543;SDS011;1786;52.870;9.578;2023-05-10T03:56:37;7.20;;;3.30;;
3543;SDS011;1786;52.870;9.578;2023-05-10T03:59:05;5.40;;;3.83;;
3543;SDS011;1786;52.870;9.578;2023-05-10T04:01:35;3.57;;;3.20;;
3543;SDS011;1786;52.870;9.578;2023-05-10T04:04:01;3.13;;;2.77;;
3543;SDS011;1786;52.870;9.578;2023-05-10T04:06:30;3.77;;;3.47;;
3543;SDS011;1786;52.870;9.578;2023-05-10T04:08:57;6.80;;;3.80;;
3543;SDS011;1786;52.870;9.578;2023-05-10T04:11:26;2.73;;;2.63;;
3543;SDS011;1786;52.870;9.578;2023-05-10T04:13:53;3.57;;;3.37;;
3543;SDS011;1786;52.870;9.578;2023-05-10T04:16:19;3.20;;;3.00;;
3543;SDS011;1786;52.870;9.578;2023-05-10T04:18:46;4.40;;;3.40;;
3543;SDS011;1786;52.870;9.578;2023-05-10T04:21:13;3.47;;;3.17;;
3543;SDS011;1786;52.870;9.578;2023-05-10T04:23:40;4.10;;;3.80;;
3543;SDS011;1786;52.870;9.578;2023-05-10T04:26:07;3.67;;;3.37;;
3543;SDS011;1786;52.870;9.578;2023-05-10T04:28:33;3.57;;;3.33;;
3543;SDS011;1786;52.870;9.578;2023-05-10T04:31:01;3.40;;;3.20;;
3543;SDS011;1786;52.870;9.578;2023-05-10T04:33:29;3.63;;;3.33;;
3543;SDS011;1786;52.870;9.578;2023-05-10T04:35:56;7.50;;;3.70;;
3543;SDS011;1786;52.870;9.578;2023-05-10T04:38:23;3.87;;;3.57;;
3543;SDS011;1786;52.870;9.578;2023-05-10T04:40:50;8.83;;;3.37;;
3543;SDS011;1786;52.870;9.578;2023-05-10T04:43:17;3.60;;;3.40;;
3543;SDS011;1786;52.870;9.578;2023-05-10T04:45:43;5.73;;;4.17;;
3543;SDS011;1786;52.870;9.578;2023-05-10T04:48:10;3.70;;;3.30;;
3543;SDS011;1786;52.870;9.578;2023-05-10T04:50:37;3.40;;;3.20;;
3543;SDS011;1786;52.870;9.578;2023-05-10T04:53:04;3.70;;;3.40;;
3543;SDS011;1786;52.870;9.578;2023-05-10T04:55:31;3.73;;;3.37;;
3543;SDS011;1786;52.870;9.578;2023-05-10T04:57:58;5.00;;;4.17;;
3543;SDS011;1786;52.870;9.578;2023-05-10T05:00:25;5.03;;;2.90;;
3543;SDS011;1786;52.870;9.578;2023-05-10T05:02:52;5.40;;;3.70;;
3543;SDS011;1786;52.870;9.578;2023-05-10T05:05:18;4.17;;;3.27;;
3543;SDS011;1786;52.870;9.578;2023-05-10T05:07:45;3.87;;;3.47;;
3543;SDS011;1786;52.870;9.578;2023-05-10T05:10:13;2.93;;;2.80;;
3543;SDS011;1786;52.870;9.578;2023-05-10T05:12:40;3.63;;;3.43;;
3543;SDS011;1786;52.870;9.578;2023-05-10T05:15:06;3.73;;;3.43;;
3543;SDS011;1786;52.870;9.578;2023-05-10T05:17:35;6.27;;;3.40;;
3543;SDS011;1786;52.870;9.578;2023-05-10T05:20:02;3.90;;;3.50;;
3543;SDS011;1786;52.870;9.578;2023-05-10T05:22:29;3.87;;;3.57;;
3543;SDS011;1786;52.870;9.578;2023-05-10T05:24:56;3.20;;;3.00;;
3543;SDS011;1786;52.870;9.578;2023-05-10T05:27:24;3.10;;;2.90;;
3543;SDS011;1786;52.870;9.578;2023-05-10T05:29:53;3.23;;;3.03;;
3543;SDS011;1786;52.870;9.578;2023-05-10T05:32:20;6.57;;;3.80;;
3543;SDS011;1786;52.870;9.578;2023-05-10T05:34:47;3.63;;;3.33;;
3543;SDS011;1786;52.870;9.578;2023-05-10T05:37:20;8.90;;;3.47;;
3543;SDS011;1786;52.870;9.578;2023-05-10T05:39:47;3.70;;;3.40;;
3543;SDS011;1786;52.870;9.578;2023-05-10T05:42:15;4.00;;;3.80;;
3543;SDS011;1786;52.870;9.578;2023-05-10T05:44:43;5.07;;;4.60;;
3543;SDS011;1786;52.870;9.578;2023-05-10T05:47:10;4.00;;;3.70;;
3543;SDS011;1786;52.870;9.578;2023-05-10T05:49:37;6.10;;;3.80;;
3543;SDS011;1786;52.870;9.578;2023-05-10T05:52:04;4.37;;;4.17;;
3543;SDS011;1786;52.870;9.578;2023-05-10T05:54:31;6.03;;;3.70;;
3543;SDS011;1786;52.870;9.578;2023-05-10T05:56:58;4.97;;;4.53;;
3543;SDS011;1786;52.870;9.578;2023-05-10T05:59:27;4.90;;;4.40;;
3543;SDS011;1786;52.870;9.578;2023-05-10T06:01:54;5.07;;;4.00;;
3543;SDS011;1786;52.870;9.578;2023-05-10T06:04:21;9.70;;;4.63;;
3543;SDS011;1786;52.870;9.578;2023-05-10T06:06:48;4.33;;;3.93;;
3543;SDS011;1786;52.870;9.578;2023-05-10T06:09:15;6.03;;;4.40;;
3543;SDS011;1786;52.870;9.578;2023-05-10T06:11:42;4.70;;;4.30;;
3543;SDS011;1786;52.870;9.578;2023-05-10T06:14:09;5.77;;;5.37;;
3543;SDS011;1786;52.870;9.578;2023-05-10T06:16:36;4.53;;;4.23;;
3543;SDS011;1786;52.870;9.578;2023-05-10T06:19:03;7.23;;;5.13;;
3543;SDS011;1786;52.870;9.578;2023-05-10T06:21:30;7.43;;;6.00;;
3543;SDS011;1786;52.870;9.578;2023-05-10T06:23:57;7.30;;;5.10;;
3543;SDS011;1786;52.870;9.578;2023-05-10T06:26:23;8.43;;;4.77;;
3543;SDS011;1786;52.870;9.578;2023-05-10T06:28:50;7.50;;;5.03;;
3543;SDS011;1786;52.870;9.578;2023-05-10T06:31:17;8.30;;;4.73;;
3543;SDS011;1786;52.870;9.578;2023-05-10T06:33:43;3.90;;;3.70;;
3543;SDS011;1786;52.870;9.578;2023-05-10T06:36:10;5.30;;;4.90;;
3543;SDS011;1786;52.870;9.578;2023-05-10T06:38:38;5.57;;;5.10;;
3543;SDS011;1786;52.870;9.578;2023-05-10T06:41:05;13.30;;;4.50;;
3543;SDS011;1786;52.870;9.578;2023-05-10T06:43:32;4.20;;;3.90;;
3543;SDS011;1786;52.870;9.578;2023-05-10T06:45:58;5.20;;;4.80;;
3543;SDS011;1786;52.870;9.578;2023-05-10T06:48:25;4.90;;;4.50;;
3543;SDS011;1786;52.870;9.578;2023-05-10T06:50:52;4.70;;;4.30;;
3543;SDS011;1786;52.870;9.578;2023-05-10T06:53:19;7.70;;;4.80;;
3543;SDS011;1786;52.870;9.578;2023-05-10T06:55:45;5.63;;;4.63;;
3543;SDS011;1786;52.870;9.578;2023-05-10T06:58:12;5.03;;;4.63;;
3543;SDS011;1786;52.870;9.578;2023-05-10T07:00:39;6.27;;;5.10;;
3543;SDS011;1786;52.870;9.578;2023-05-10T07:03:07;5.07;;;4.50;;
3543;SDS011;1786;52.870;9.578;2023-05-10T07:05:33;5.13;;;4.70;;
3543;SDS011;1786;52.870;9.578;2023-05-10T07:08:00;6.67;;;6.10;;
3543;SDS011;1786;52.870;9.578;2023-05-10T07:10:27;4.80;;;4.50;;
3543;SDS011;1786;52.870;9.578;2023-05-10T07:12:54;5.70;;;5.20;;
3543;SDS011;1786;52.870;9.578;2023-05-10T07:15:21;5.90;;;5.40;;
3543;SDS011;1786;52.870;9.578;2023-05-10T07:17:48;5.83;;;5.43;;
3543;SDS011;1786;52.870;9.578;2023-05-10T07:20:14;17.00;;;5.93;;
3543;SDS011;1786;52.870;9.578;2023-05-10T07:22:41;6.80;;;6.20;;
3543;SDS011;1786;52.870;9.578;2023-05-10T07:25:08;8.20;;;7.13;;
3543;SDS011;1786;52.870;9.578;2023-05-10T07:27:35;6.53;;;6.10;;
3543;SDS011;1786;52.870;9.578;2023-05-10T07:30:02;6.17;;;5.57;;
3543;SDS011;1786;52.870;9.578;2023-05-10T07:32:28;5.83;;;5.00;;
3543;SDS011;1786;52.870;9.578;2023-05-10T07:34:55;6.60;;;6.00;;
3543;SDS011;1786;52.870;9.578;2023-05-10T07:37:22;7.03;;;5.97;;
3543;SDS011;1786;52.870;9.578;2023-05-10T07:39:49;7.87;;;6.40;;
3543;SDS011;1786;52.870;9.578;2023-05-10T07:42:15;7.17;;;6.57;;
3543;SDS011;1786;52.870;9.578;2023-05-10T07:44:42;7.27;;;6.50;;
3543;SDS011;1786;52.870;9.578;2023-05-10T07:47:09;7.47;;;6.60;;
3543;SDS011;1786;52.870;9.578;2023-05-10T07:49:36;6.43;;;6.03;;
3543;SDS011;1786;52.870;9.578;2023-05-10T07:52:03;9.87;;;6.13;;
3543;SDS011;1786;52.870;9.578;2023-05-10T07:54:29;7.43;;;6.63;;
3543;SDS011;1786;52.870;9.578;2023-05-10T07:56:56;6.50;;;5.90;;
3543;SDS011;1786;52.870;9.578;2023-05-10T07:59:22;9.90;;;6.90;;
3543;SDS011;1786;52.870;9.578;2023-05-10T08:01:49;9.60;;;7.27;;
3543;SDS011;1786;52.870;9.578;2023-05-10T08:04:16;7.30;;;6.60;;
3543;SDS011;1786;52.870;9.578;2023-05-10T08:06:43;8.20;;;7.43;;
3543;SDS011;1786;52.870;9.578;2023-05-10T08:09:10;9.57;;;7.30;;
3543;SDS011;1786;52.870;9.578;2023-05-10T08:11:37;7.30;;;6.60;;
3543;SDS011;1786;52.870;9.578;2023-05-10T08:14:04;7.70;;;6.90;;
3543;SDS011;1786;52.870;9.578;2023-05-10T08:16:30;8.10;;;7.40;;
3543;SDS011;1786;52.870;9.578;2023-05-10T08:18:57;8.97;;;7.40;;
3543;SDS011;1786;52.870;9.578;2023-05-10T08:21:24;8.53;;;7.77;;
3543;SDS011;1786;52.870;9.578;2023-05-10T08:23:51;10.70;;;8.17;;
3543;SDS011;1786;52.870;9.578;2023-05-10T08:26:17;9.10;;;7.17;;
3543;SDS011;1786;52.870;9.578;2023-05-10T08:28:44;8.40;;;7.70;;
3543;SDS011;1786;52.870;9.578;2023-05-10T08:31:10;8.30;;;7.60;;
3543;SDS011;1786;52.870;9.578;2023-05-10T08:33:38;11.23;;;7.50;;
3543;SDS011;1786;52.870;9.578;2023-05-10T08:36:07;10.30;;;7.83;;
3543;SDS011;1786;52.870;9.578;2023-05-10T08:38:35;8.70;;;7.90;;
3543;SDS011;1786;52.870;9.578;2023-05-10T08:41:04;8.20;;;7.60;;
3543;SDS011;1786;52.870;9.578;2023-05-10T08:43:31;8.00;;;7.40;;
3543;SDS011;1786;52.870;9.578;2023-05-10T08:46:00;9.90;;;7.70;;
3543;SDS011;1786;52.870;9.578;2023-05-10T08:48:29;7.70;;;7.07;;
3543;SDS011;1786;52.870;9.578;2023-05-10T08:50:58;8.60;;;7.70;;
3543;SDS011;1786;52.870;9.578;2023-05-10T08:53:27;8.97;;;8.17;;
3543;SDS011;1786;52.870;9.578;2023-05-10T08:55:56;8.40;;;7.60;;
3543;SDS011;1786;52.870;9.578;2023-05-10T08:58:23;8.50;;;7.83;;
3543;SDS011;1786;52.870;9.578;2023-05-10T09:00:50;8.43;;;7.37;;
3543;SDS011;1786;52.870;9.578;2023-05-10T09:03:17;8.40;;;7.57;;
3543;SDS011;1786;52.870;9.578;2023-05-10T09:05:44;7.73;;;7.13;;
3543;SDS011;1786;52.870;9.578;2023-05-10T09:08:12;7.27;;;6.60;;
3543;SDS011;1786;52.870;9.578;2023-05-10T09:10:40;7.63;;;7.03;;
3543;SDS011;1786;52.870;9.578;2023-05-10T09:13:10;7.13;;;6.53;;
3543;SDS011;1786;52.870;9.578;2023-05-10T09:15:38;8.27;;;7.60;;
3543;SDS011;1786;52.870;9.578;2023-05-10T09:18:05;6.33;;;5.93;;
3543;SDS011;1786;52.870;9.578;2023-05-10T09:20:32;6.77;;;6.20;;
3543;SDS011;1786;52.870;9.578;2023-05-10T09:22:59;6.83;;;6.33;;
3543;SDS011;1786;52.870;9.578;2023-05-10T09:25:26;6.70;;;5.63;;
3543;SDS011;1786;52.870;9.578;2023-05-10T09:27:52;6.83;;;6.33;;
3543;SDS011;1786;52.870;9.578;2023-05-10T09:30:29;6.40;;;5.90;;
3543;SDS011;1786;52.870;9.578;2023-05-10T09:32:57;6.10;;;5.60;;
3543;SDS011;1786;52.870;9.578;2023-05-10T09:35:26;6.63;;;6.10;;
3543;SDS011;1786;52.870;9.578;2023-05-10T09:37:57;6.43;;;6.03;;
3543;SDS011;1786;52.870;9.578;2023-05-10T09:40:26;4.90;;;4.70;;
3543;SDS011;1786;52.870;9.578;2023-05-10T09:42:54;5.60;;;5.30;;
3543;SDS011;1786;52.870;9.578;2023-05-10T09:45:27;6.47;;;5.97;;
3543;SDS011;1786;52.870;9.578;2023-05-10T09:47:55;6.33;;;5.93;;
3543;SDS011;1786;52.870;9.578;2023-05-10T09:50:23;5.93;;;5.43;;
3543;SDS011;1786;52.870;9.578;2023-05-10T09:52:56;4.83;;;4.57;;
3543;SDS011;1786;52.870;9.578;2023-05-10T09:58:13;5.40;;;5.10;;
3543;SDS011;1786;52.870;9.578;2023-05-10T10:00:41;5.20;;;4.67;;
3543;SDS011;1786;52.870;9.578;2023-05-10T10:03:16;5.53;;;5.13;;
3543;SDS011;1786;52.870;9.578;2023-05-10T10:05:43;4.43;;;4.13;;
3543;SDS011;1786;52.870;9.578;2023-05-10T10:08:11;4.40;;;4.10;;
3543;SDS011;1786;52.870;9.578;2023-05-10T10:10:39;4.60;;;4.40;;
3543;SDS011;1786;52.870;9.578;2023-05-10T10:13:07;4.80;;;4.50;;
3543;SDS011;1786;52.870;9.578;2023-05-10T10:15:34;4.07;;;3.87;;
3543;SDS011;1786;52.870;9.578;2023-05-10T10:18:01;4.80;;;4.40;;
3543;SDS011;1786;52.870;9.578;2023-05-10T10:20:30;4.30;;;4.10;;
3543;SDS011;1786;52.870;9.578;2023-05-10T10:22:57;5.33;;;4.87;;
3543;SDS011;1786;52.870;9.578;2023-05-10T10:25:24;4.63;;;4.43;;
3543;SDS011;1786;52.870;9.578;2023-05-10T10:30:25;4.50;;;4.10;;
3543;SDS011;1786;52.870;9.578;2023-05-10T10:35:53;4.37;;;4.13;;
3543;SDS011;1786;52.870;9.578;2023-05-10T10:38:21;3.73;;;3.53;;
3543;SDS011;1786;52.870;9.578;2023-05-10T10:41:01;3.77;;;3.60;;
3543;SDS011;1786;52.870;9.578;2023-05-10T10:43:29;4.33;;;4.13;;
3543;SDS011;1786;52.870;9.578;2023-05-10T10:46:09;4.40;;;4.10;;
3543;SDS011;1786;52.870;9.578;2023-05-10T10:48:36;4.87;;;4.57;;
3543;SDS011;1786;52.870;9.578;2023-05-10T10:51:02;4.00;;;3.80;;
3543;SDS011;1786;52.870;9.578;2023-05-10T10:53:29;4.43;;;4.13;;
3543;SDS011;1786;52.870;9.578;2023-05-10T10:56:10;4.97;;;4.67;;
3543;SDS011;1786;52.870;9.578;2023-05-10T10:58:40;4.57;;;4.37;;
3543;SDS011;1786;52.870;9.578;2023-05-10T11:01:11;4.10;;;3.90;;
3543;SDS011;1786;52.870;9.578;2023-05-10T11:03:41;4.33;;;4.03;;
3543;SDS011;1786;52.870;9.578;2023-05-10T11:06:30;3.50;;;3.30;;
3543;SDS011;1786;52.870;9.578;2023-05-10T11:09:05;4.00;;;3.70;;
3543;SDS011;1786;52.870;9.578;2023-05-10T11:11:34;3.77;;;3.47;;
3543;SDS011;1786;52.870;9.578;2023-05-10T11:14:07;3.50;;;3.23;;
3543;SDS011;1786;52.870;9.578;2023-05-10T11:16:41;3.80;;;3.23;;
3543;SDS011;1786;52.870;9.578;2023-05-10T11:19:13;4.00;;;3.70;;
3543;SDS011;1786;52.870;9.578;2023-05-10T11:24:31;3.53;;;3.37;;
3543;SDS011;1786;52.870;9.578;2023-05-10T11:26:58;3.83;;;3.63;;
3543;SDS011;1786;52.870;9.578;2023-05-10T11:29:26;5.40;;;3.73;;
3543;SDS011;1786;52.870;9.578;2023-05-10T11:31:53;3.87;;;3.60;;
3543;SDS011;1786;52.870;9.578;2023-05-10T11:34:27;2.83;;;2.70;;
3543;SDS011;1786;52.870;9.578;2023-05-10T11:37:01;4.83;;;3.13;;
3543;SDS011;1786;52.870;9.578;2023-05-10T11:39:29;3.03;;;2.83;;
3543;SDS011;1786;52.870;9.578;2023-05-10T11:41:57;8.60;;;3.27;;
3543;SDS011;1786;52.870;9.578;2023-05-10T11:44:29;2.93;;;2.80;;
3543;SDS011;1786;52.870;9.578;2023-05-10T11:46:59;3.23;;;3.03;;
3543;SDS011;1786;52.870;9.578;2023-05-10T11:49:27;3.83;;;3.50;;
3543;SDS011;1786;52.870;9.578;2023-05-10T11:52:05;4.90;;;3.17;;
3543;SDS011;1786;52.870;9.578;2023-05-10T11:54:33;3.23;;;3.03;;
3543;SDS011;1786;52.870;9.578;2023-05-10T11:57:02;3.40;;;3.10;;
3543;SDS011;1786;52.870;9.578;2023-05-10T11:59:29;3.50;;;3.20;;
3543;SDS011;1786;52.870;9.578;2023-05-10T12:01:56;3.30;;;3.10;;
3543;SDS011;1786;52.870;9.578;2023-05-10T12:04:23;5.23;;;3.30;;
3543;SDS011;1786;52.870;9.578;2023-05-10T12:06:49;3.50;;;3.33;;
3543;SDS011;1786;52.870;9.578;2023-05-10T12:09:16;10.30;;;3.70;;
3543;SDS011;1786;52.870;9.578;2023-05-10T12:11:48;5.00;;;4.07;;
3543;SDS011;1786;52.870;9.578;2023-05-10T12:14:15;4.10;;;3.70;;
3543;SDS011;1786;52.870;9.578;2023-05-10T12:16:42;4.43;;;4.13;;
3543;SDS011;1786;52.870;9.578;2023-05-10T12:19:09;4.20;;;3.13;;
3543;SDS011;1786;52.870;9.578;2023-05-10T12:21:36;6.27;;;3.40;;
3543;SDS011;1786;52.870;9.578;2023-05-10T12:24:04;3.80;;;3.50;;
3543;SDS011;1786;52.870;9.578;2023-05-10T12:26:31;4.97;;;3.80;;
3543;SDS011;1786;52.870;9.578;2023-05-10T12:29:14;4.20;;;3.90;;
3543;SDS011;1786;52.870;9.578;2023-05-10T12:31:55;3.53;;;3.33;;
3543;SDS011;1786;52.870;9.578;2023-05-10T12:36:52;6.30;;;4.63;;
3543;SDS011;1786;52.870;9.578;2023-05-10T12:39:19;5.20;;;4.70;;
3543;SDS011;1786;52.870;9.578;2023-05-10T12:41:46;5.87;;;4.87;;
3543;SDS011;1786;52.870;9.578;2023-05-10T12:44:13;7.80;;;5.90;;
3543;SDS011;1786;52.870;9.578;2023-05-10T12:46:39;7.13;;;5.30;;
3543;SDS011;1786;52.870;9.578;2023-05-10T12:49:06;9.93;;;4.70;;
3543;SDS011;1786;52.870;9.578;2023-05-10T12:51:35;4.77;;;4.37;;
3543;SDS011;1786;52.870;9.578;2023-05-10T12:54:02;5.73;;;5.23;;
3543;SDS011;1786;52.870;9.578;2023-05-10T12:56:29;5.63;;;5.27;;
3543;SDS011;1786;52.870;9.578;2023-05-10T12:58:56;7.77;;;6.50;;
3543;SDS011;1786;52.870;9.578;2023-05-10T13:01:23;7.30;;;6.70;;
3543;SDS011;1786;52.870;9.578;2023-05-10T13:03:49;7.80;;;7.10;;
3543;SDS011;1786;52.870;9.578;2023-05-10T13:06:16;4.80;;;4.40;;
3543;SDS011;1786;52.870;9.578;2023-05-10T13:08:43;4.70;;;4.27;;
3543;SDS011;1786;52.870;9.578;2023-05-10T13:11:09;3.60;;;3.40;;
3543;SDS011;1786;52.870;9.578;2023-05-10T13:13:36;3.03;;;2.63;;
3543;SDS011;1786;52.870;9.578;2023-05-10T13:16:03;3.30;;;3.03;;
3543;SDS011;1786;52.870;9.578;2023-05-10T13:18:30;3.90;;;2.90;;
3543;SDS011;1786;52.870;9.578;2023-05-10T13:20:57;3.57;;;3.27;;
3543;SDS011;1786;52.870;9.578;2023-05-10T13:23:23;3.30;;;3.10;;
3543;SDS011;1786;52.870;9.578;2023-05-10T13:25:50;3.80;;;3.50;;
3543;SDS011;1786;52.870;9.578;2023-05-10T13:28:17;3.90;;;3.70;;
3543;SDS011;1786;52.870;9.578;2023-05-10T13:30:43;5.03;;;4.50;;
3543;SDS011;1786;52.870;9.578;2023-05-10T13:33:10;5.90;;;4.77;;
3543;SDS011;1786;52.870;9.578;2023-05-10T13:35:37;4.97;;;4.43;;
3543;SDS011;1786;52.870;9.578;2023-05-10T13:38:04;6.10;;;5.70;;
3543;SDS011;1786;52.870;9.578;2023-05-10T13:40:30;8.30;;;6.83;;
3543;SDS011;1786;52.870;9.578;2023-05-10T13:42:57;7.00;;;6.40;;
3543;SDS011;1786;52.870;9.578;2023-05-10T13:45:23;7.43;;;5.67;;
3543;SDS011;1786;52.870;9.578;2023-05-10T13:47:50;5.60;;;5.20;;
3543;SDS011;1786;52.870;9.578;2023-05-10T13:50:18;6.10;;;5.40;;
3543;SDS011;1786;52.870;9.578;2023-05-10T13:52:45;5.80;;;5.30;;
3543;SDS011;1786;52.870;9.578;2023-05-10T13:55:12;5.60;;;5.20;;
3543;SDS011;1786;52.870;9.578;2023-05-10T13:57:39;5.37;;;4.97;;
3543;SDS011;1786;52.870;9.578;2023-05-10T14:00:07;5.27;;;4.77;;
3543;SDS011;1786;52.870;9.578;2023-05-10T14:02:34;6.10;;;5.23;;
3543;SDS011;1786;52.870;9.578;2023-05-10T14:05:01;5.40;;;5.00;;
3543;SDS011;1786;52.870;9.578;2023-05-10T14:07:28;5.53;;;5.03;;
3543;SDS011;1786;52.870;9.578;2023-05-10T14:09:55;5.77;;;5.20;;
3543;SDS011;1786;52.870;9.578;2023-05-10T14:12:22;5.03;;;4.70;;
3543;SDS011;1786;52.870;9.578;2023-05-10T14:14:48;4.03;;;3.83;;
3543;SDS011;1786;52.870;9.578;2023-05-10T14:17:16;5.50;;;2.50;;
3543;SDS011;1786;52.870;9.578;2023-05-10T14:19:42;1.50;;;1.50;;
3543;SDS011;1786;52.870;9.578;2023-05-10T14:22:09;3.70;;;1.10;;
3543;SDS011;1786;52.870;9.578;2023-05-10T14:24:37;1.20;;;1.03;;
3543;SDS011;1786;52.870;9.578;2023-05-10T14:27:04;0.80;;;0.80;;
3543;SDS011;1786;52.870;9.578;2023-05-10T14:29:30;0.80;;;0.80;;
3543;SDS011;1786;52.870;9.578;2023-05-10T14:31:57;0.70;;;0.70;;
3543;SDS011;1786;52.870;9.578;2023-05-10T14:34:24;0.90;;;0.90;;
3543;SDS011;1786;52.870;9.578;2023-05-10T14:36:50;0.80;;;0.80;;
3543;SDS011;1786;52.870;9.578;2023-05-10T14:39:17;0.80;;;0.80;;
3543;SDS011;1786;52.870;9.578;2023-05-10T14:41:44;0.70;;;0.70;;
3543;SDS011;1786;52.870;9.578;2023-05-10T14:44:11;2.07;;;0.70;;
3543;SDS011;1786;52.870;9.578;2023-05-10T14:46:38;0.60;;;0.60;;
3543;SDS011;1786;52.870;9.578;2023-05-10T14:49:05;0.80;;;0.80;;
3543;SDS011;1786;52.870;9.578;2023-05-10T14:51:32;0.73;;;0.73;;
3543;SDS011;1786;52.870;9.578;2023-05-10T14:53:59;1.17;;;0.90;;
3543;SDS011;1786;52.870;9.578;2023-05-10T14:56:26;3.80;;;1.77;;
3543;SDS011;1786;52.870;9.578;2023-05-10T14:58:54;1.37;;;1.37;;
3543;SDS011;1786;52.870;9.578;2023-05-10T15:01:20;1.57;;;1.47;;
3543;SDS011;1786;52.870;9.578;2023-05-10T15:03:47;1.43;;;1.43;;
3543;SDS011;1786;52.870;9.578;2023-05-10T15:06:15;1.43;;;1.43;;
3543;SDS011;1786;52.870;9.578;2023-05-10T15:08:44;1.40;;;1.40;;
3543;SDS011;1786;52.870;9.578;2023-05-10T15:11:10;1.40;;;1.40;;
3543;SDS011;1786;52.870;9.578;2023-05-10T15:13:37;2.10;;;1.57;;
3543;SDS011;1786;52.870;9.578;2023-05-10T15:16:03;1.30;;;1.30;;
3543;SDS011;1786;52.870;9.578;2023-05-10T15:18:30;1.60;;;1.60;;
3543;SDS011;1786;52.870;9.578;2023-05-10T15:20:57;1.93;;;1.83;;
3543;SDS011;1786;52.870;9.578;2023-05-10T15:23:25;1.80;;;1.70;;
3543;SDS011;1786;52.870;9.578;2023-05-10T15:25:51;1.90;;;1.80;;
3543;SDS011;1786;52.870;9.578;2023-05-10T15:28:21;1.10;;;1.10;;
3543;SDS011;1786;52.870;9.578;2023-05-10T15:30:49;1.40;;;1.40;;
3543;SDS011;1786;52.870;9.578;2023-05-10T15:33:16;1.43;;;1.43;;
3543;SDS011;1786;52.870;9.578;2023-05-10T15:35:43;4.00;;;1.20;;
3543;SDS011;1786;52.870;9.578;2023-05-10T15:38:09;1.23;;;1.23;;
3543;SDS011;1786;52.870;9.578;2023-05-10T15:40:36;1.73;;;1.63;;
3543;SDS011;1786;52.870;9.578;2023-05-10T15:43:03;1.00;;;1.00;;
3543;SDS011;1786;52.870;9.578;2023-05-10T15:45:31;1.13;;;1.13;;